createdAt,value
2023-02-11T00:00:13.922Z,101704.91
2023-02-11T00:05:17.580Z,101698.31
2023-02-11T00:10:21.209Z,101691.47
2023-02-11T00:15:26.562Z,101686.22
2023-02-11T00:20:30.167Z,101683.88
2023-02-11T00:25:33.998Z,101679.88
2023-02-11T00:30:39.775Z,101676.50
2023-02-11T00:35:43.503Z,101667.28
2023-02-11T00:40:47.160Z,101675.91
2023-02-11T00:45:52.670Z,101656.69
2023-02-11T00:50:56.530Z,101632.47
2023-02-11T00:56:00.225Z,101638.78
2023-02-11T01:01:06.024Z,101643.09
2023-02-11T01:06:14.640Z,101657.13
2023-02-11T01:11:38.680Z,101631.06
2023-02-11T01:16:44.255Z,101633.34
2023-02-11T01:21:47.880Z,101628.28
2023-02-11T01:26:51.499Z,101635.31
2023-02-11T01:31:56.789Z,101631.94
2023-02-11T01:37:01.221Z,101638.94
2023-02-11T01:42:05.109Z,101641.56
2023-02-11T01:47:10.693Z,101641.56
2023-02-11T01:52:18.205Z,101652.31
2023-02-11T01:57:24.692Z,101654.84
2023-02-11T02:02:37.591Z,101659.13
2023-02-11T02:07:48.026Z,101658.25
2023-02-11T02:12:51.646Z,101660.06
2023-02-11T02:18:10.367Z,101668.88
2023-02-11T02:23:36.266Z,101668.97
2023-02-11T02:29:14.837Z,101673.34
2023-02-11T02:34:28.571Z,101664.88
2023-02-11T02:39:36.324Z,101677.13
2023-02-11T02:44:40.006Z,101665.16
2023-02-11T02:49:45.353Z,101664.53
2023-02-11T02:55:25.563Z,101657.75
2023-02-11T03:00:36.462Z,101662.97
2023-02-11T03:05:50.828Z,101657.03
2023-02-11T03:10:56.343Z,101664.91
2023-02-11T03:16:03.939Z,101659.66
2023-02-11T03:21:10.824Z,101652.72
2023-02-11T03:26:22.443Z,101648.34
2023-02-11T03:31:34.892Z,101653.56
2023-02-11T03:36:45.458Z,101646.63
2023-02-11T03:41:50.697Z,101639.63
2023-02-11T03:46:56.554Z,101624.00
2023-02-11T03:52:04.088Z,101633.38
2023-02-11T03:57:07.827Z,101626.38
2023-02-11T04:02:11.481Z,101638.56
2023-02-11T04:07:16.764Z,101630.75
2023-02-11T04:12:20.536Z,101630.84
2023-02-11T04:17:24.426Z,101640.41
2023-02-11T04:22:30.285Z,101627.38
2023-02-11T04:27:34.849Z,101635.25
2023-02-11T04:32:38.516Z,101628.28
2023-02-11T04:37:43.876Z,101627.38
2023-02-11T04:42:47.509Z,101621.28
2023-02-11T04:47:51.206Z,101614.34
2023-02-11T04:52:56.537Z,101615.25
2023-02-11T04:58:00.281Z,101616.09
2023-02-11T05:03:03.944Z,101626.47
2023-02-11T05:08:09.724Z,101630.91
2023-02-11T05:13:13.347Z,101625.81
2023-02-11T05:18:16.993Z,101622.28
2023-02-11T05:23:22.287Z,101618.84
2023-02-11T05:28:26.157Z,101627.56
2023-02-11T05:33:29.922Z,101611.03
2023-02-11T05:38:35.367Z,101615.38
2023-02-11T05:43:39.167Z,101612.72
2023-02-11T05:48:42.818Z,101616.22
2023-02-11T05:53:48.096Z,101614.47
2023-02-11T05:58:51.714Z,101617.94
2023-02-11T06:03:55.383Z,101601.41
2023-02-11T06:09:00.689Z,101601.41
2023-02-11T06:14:04.392Z,101588.31
2023-02-11T06:19:08.031Z,101587.44
2023-02-11T06:24:13.609Z,101564.91
2023-02-11T06:29:17.265Z,101562.28
2023-02-11T06:34:20.896Z,101547.53
2023-02-11T06:39:26.180Z,101553.59
2023-02-11T06:44:29.840Z,101542.28
2023-02-11T06:49:33.621Z,101554.44
2023-02-11T06:54:39.063Z,101544.91
2023-02-11T06:59:42.917Z,101539.66
2023-02-11T07:04:46.537Z,101524.94
2023-02-11T07:09:52.508Z,101519.69
2023-02-11T07:14:57.397Z,101519.63
2023-02-11T07:20:01.053Z,101509.25
2023-02-11T07:25:07.595Z,101504.94
2023-02-11T07:30:12.714Z,101499.69
2023-02-11T07:35:16.456Z,101486.66
2023-02-11T07:40:22.635Z,101489.31
2023-02-11T07:45:26.254Z,101492.78
2023-02-11T07:50:30.057Z,101475.47
2023-02-11T07:55:35.338Z,101467.59
2023-02-11T08:00:39.055Z,101453.69
2023-02-11T08:05:42.682Z,101462.31
2023-02-11T08:10:48.068Z,101466.66
2023-02-11T08:15:51.975Z,101464.09
2023-02-11T08:20:55.828Z,101459.81
2023-02-11T08:26:04.628Z,101443.25
2023-02-11T08:31:09.715Z,101442.44
2023-02-11T08:36:15.078Z,101437.25
2023-02-11T08:41:20.347Z,101432.09
2023-02-11T08:46:24.020Z,101418.22
2023-02-11T08:51:29.658Z,101413.16
2023-02-11T08:56:34.904Z,101405.41
2023-02-11T09:01:39.495Z,101400.19
2023-02-11T09:06:43.304Z,101382.78
2023-02-11T09:11:48.608Z,101382.84
2023-02-11T09:16:52.599Z,101368.09
2023-02-11T09:21:57.028Z,101362.88
2023-02-11T09:27:02.331Z,101359.41
2023-02-11T09:32:08.623Z,101368.13
2023-02-11T09:37:13.405Z,101345.56
2023-02-11T09:42:44.693Z,101343.78
2023-02-11T09:47:51.715Z,101349.00
2023-02-11T09:53:01.569Z,101329.16
2023-02-11T09:58:12.741Z,101319.59
2023-02-11T10:03:45.364Z,101324.75
2023-02-11T10:09:00.231Z,101334.34
2023-02-11T10:14:20.198Z,101319.59
2023-02-11T10:19:46.907Z,101316.13
2023-02-11T10:24:54.704Z,101320.47
2023-02-11T10:30:05.097Z,101317.00
2023-02-11T10:35:17.832Z,101311.78
2023-02-11T10:40:23.196Z,101310.09
2023-02-11T10:45:32.937Z,101305.72
2023-02-11T10:50:36.748Z,101289.22
2023-02-11T10:55:50.025Z,101293.63
2023-02-11T11:00:59.081Z,101286.66
2023-02-11T11:06:04.701Z,101290.97
2023-02-11T11:11:10.024Z,101282.28
2023-02-11T11:16:24.217Z,101281.47
2023-02-11T11:21:34.112Z,101260.66
2023-02-11T11:26:43.249Z,101259.91
2023-02-11T11:31:56.629Z,101259.03
2023-02-11T11:37:01.672Z,101259.91
2023-02-11T11:42:23.172Z,101241.75
2023-02-11T11:47:40.272Z,101247.00
2023-02-11T11:52:52.133Z,101242.72
2023-02-11T11:57:55.781Z,101244.50
2023-02-11T12:03:31.032Z,101240.22
2023-02-11T12:08:49.455Z,101235.94
2023-02-11T12:14:10.888Z,101231.59
2023-02-11T12:19:45.405Z,101231.72
2023-02-11T12:25:06.325Z,101230.84
2023-02-11T12:30:27.843Z,101228.22
2023-02-11T12:35:40.598Z,101230.03
2023-02-11T12:40:54.306Z,101228.34
2023-02-11T12:46:13.309Z,101226.56
2023-02-11T12:51:27.907Z,101224.81
2023-02-11T12:56:38.427Z,101217.06
2023-02-11T13:01:44.256Z,101225.75
2023-02-11T13:06:53.154Z,101221.44
2023-02-11T13:12:03.072Z,101216.25
2023-02-11T13:17:15.780Z,101211.88
2023-02-11T13:22:24.954Z,101214.47
2023-02-11T13:27:41.495Z,101206.69
2023-02-11T13:33:18.646Z,101201.47
2023-02-11T13:38:22.873Z,101206.66
2023-02-11T13:43:30.483Z,101201.47
2023-02-11T13:48:36.922Z,101204.94
2023-02-11T13:53:47.151Z,101206.69
2023-02-11T13:58:53.323Z,101204.09
2023-02-11T14:04:20.639Z,101203.22
2023-02-11T14:09:44.843Z,101203.22
2023-02-11T14:15:19.374Z,101198.91
2023-02-11T14:20:44.167Z,101192.84
2023-02-11T14:26:00.746Z,101193.69
2023-02-11T14:31:08.790Z,101186.72
2023-02-11T14:36:29.553Z,101189.31
2023-02-11T14:41:39.503Z,101186.72
2023-02-11T14:46:48.619Z,101191.03
2023-02-11T14:51:53.415Z,101196.19
2023-02-11T14:57:12.484Z,101198.75
2023-02-11T15:02:24.398Z,101203.09
2023-02-11T15:07:28.155Z,101210.06
2023-02-11T15:12:31.780Z,101205.72
2023-02-11T15:17:37.804Z,101201.41
2023-02-11T15:22:41.477Z,101208.31
2023-02-11T15:27:50.344Z,101203.97
2023-02-11T15:32:57.229Z,101206.50
2023-02-11T15:38:01.698Z,101209.13
2023-02-11T15:43:06.687Z,101216.09
2023-02-11T15:48:16.730Z,101216.09
2023-02-11T15:53:26.178Z,101217.81
2023-02-11T15:58:29.958Z,101224.81
2023-02-11T16:03:35.233Z,101225.69
2023-02-11T16:08:38.890Z,101228.31
2023-02-11T16:13:47.413Z,101235.25
2023-02-11T16:19:04.338Z,101245.56
2023-02-11T16:24:18.712Z,101240.38
2023-02-11T16:29:26.687Z,101251.59
2023-02-11T16:34:32.005Z,101244.69
2023-02-11T16:39:35.745Z,101239.41
2023-02-11T16:44:39.699Z,101239.44
2023-02-11T16:49:45.734Z,101242.00
2023-02-11T16:54:49.383Z,101246.25
2023-02-11T16:59:53.470Z,101256.53
2023-02-11T17:05:01.159Z,101254.75
2023-02-11T17:10:04.970Z,101254.69
2023-02-11T17:15:09.399Z,101252.84
2023-02-11T17:20:16.209Z,101239.75
2023-02-11T17:25:20.256Z,101248.31
2023-02-11T17:30:24.009Z,101243.03
2023-02-11T17:35:29.341Z,101245.59
2023-02-11T17:40:33.008Z,101257.66
2023-02-11T17:45:41.500Z,101254.94
2023-02-11T17:50:46.882Z,101240.94
2023-02-11T17:55:50.835Z,101258.16
2023-02-11T18:00:58.487Z,101263.22
2023-02-11T18:06:05.708Z,101275.22
2023-02-11T18:11:11.347Z,101264.09
2023-02-11T18:16:14.964Z,101276.84
2023-02-11T18:21:22.203Z,101277.31
2023-02-11T18:26:26.236Z,101280.91
2023-02-11T18:31:30.006Z,101273.47
2023-02-11T18:36:35.908Z,101273.44
2023-02-11T18:41:39.512Z,101280.22
2023-02-11T18:46:43.116Z,101277.75
2023-02-11T18:51:48.741Z,101264.72
2023-02-11T18:56:52.367Z,101263.59
2023-02-11T19:01:55.965Z,101258.19
2023-02-11T19:07:01.240Z,101250.31
2023-02-11T19:12:05.278Z,101232.69
2023-02-11T19:17:09.354Z,101236.03
2023-02-11T19:22:14.820Z,101227.97
2023-02-11T19:27:18.431Z,101214.91
2023-02-11T19:32:22.024Z,101214.53
2023-02-11T19:37:27.304Z,101204.00
2023-02-11T19:42:30.943Z,101213.63
2023-02-11T19:47:34.546Z,101208.38
2023-02-11T19:52:40.887Z,101208.47
2023-02-11T19:57:44.551Z,101205.06
2023-02-11T20:02:48.893Z,101197.22
2023-02-11T20:07:54.210Z,101183.81
2023-02-11T20:12:57.893Z,101183.41
2023-02-11T20:18:01.533Z,101175.38
2023-02-11T20:23:06.790Z,101179.66
2023-02-11T20:28:10.432Z,101167.47
2023-02-11T20:33:14.036Z,101171.09
2023-02-11T20:38:19.308Z,101149.38
2023-02-11T20:43:23.122Z,101145.72
2023-02-11T20:48:26.736Z,101130.88
2023-02-11T20:53:32.226Z,101122.00
2023-02-11T20:58:36.695Z,101103.53
2023-02-11T21:03:40.435Z,101114.59
2023-02-11T21:08:47.230Z,101101.63
2023-02-11T21:13:50.893Z,101101.00
2023-02-11T21:18:54.493Z,101085.03
2023-02-11T21:23:59.891Z,101070.78
2023-02-11T21:29:03.718Z,101060.94
2023-02-11T21:34:08.234Z,101067.34
2023-02-11T21:39:13.570Z,101049.41
2023-02-11T21:44:17.236Z,101039.41
2023-02-11T21:49:20.888Z,101026.03
2023-02-11T21:54:26.160Z,101031.06
2023-02-11T21:59:30.146Z,101023.44
2023-02-11T22:04:33.791Z,101021.41
2023-02-11T22:09:39.667Z,100998.59
2023-02-11T22:14:43.423Z,100995.63
2023-02-11T22:19:47.159Z,101003.84
2023-02-11T22:24:52.566Z,101010.44
2023-02-11T22:29:56.216Z,100993.34
2023-02-11T22:41:11.519Z,100987.03
2023-02-11T22:46:16.653Z,100989.56
2023-02-11T22:51:22.662Z,100972.72
2023-02-11T22:56:53.554Z,100982.06
2023-02-11T23:01:57.422Z,100969.94
2023-02-11T23:07:01.109Z,100960.69
2023-02-11T23:12:06.868Z,100953.66
2023-02-11T23:17:10.552Z,100968.38
2023-02-11T23:22:14.177Z,100968.38
2023-02-11T23:27:19.452Z,100947.28
2023-02-11T23:32:23.233Z,100955.06
2023-02-11T23:37:26.942Z,100959.28
2023-02-11T23:42:32.254Z,100954.38
2023-02-11T23:47:36.239Z,100965.44
2023-02-11T23:52:39.904Z,100968.34
2023-02-11T23:57:45.214Z,100977.66
